sensor_id;sensor_type;location;lat;lon;timestamp;pressure;altitude;pressure_sealevel;temperature;humidity
73267;BME280;61495;53.400;7.608;2023-04-07T00:00:12;101503.41;;;8.07;72.77
73267;BME280;61495;53.400;7.608;2023-04-07T00:02:37;101520.72;;;8.11;73.25
73267;BME280;61495;53.400;7.608;2023-04-07T00:05:03;101517.91;;;8.13;71.46
73267;BME280;61495;53.400;7.608;2023-04-07T00:07:28;101519.88;;;8.11;72.41
73267;BME280;61495;53.400;7.608;2023-04-07T00:09:53;101517.41;;;8.09;73.40
73267;BME280;61495;53.400;7.608;2023-04-07T00:12:19;101517.41;;;8.09;72.02
73267;BME280;61495;53.400;7.608;2023-04-07T00:14:45;101518.25;;;8.10;73.67
73267;BME280;61495;53.400;7.608;2023-04-07T00:17:10;101512.41;;;8.06;74.23
73267;BME280;61495;53.400;7.608;2023-04-07T00:19:35;101503.41;;;8.07;74.04
73267;BME280;61495;53.400;7.608;2023-04-07T00:22:01;101512.06;;;8.09;72.50
73267;BME280;61495;53.400;7.608;2023-04-07T00:24:26;101505.88;;;8.09;72.33
73267;BME280;61495;53.400;7.608;2023-04-07T00:26:51;101506.72;;;8.09;73.12
73267;BME280;61495;53.400;7.608;2023-04-07T00:29:17;101497.75;;;8.02;74.12
73267;BME280;61495;53.400;7.608;2023-04-07T00:31:42;101496.56;;;8.05;73.86
73267;BME280;61495;53.400;7.608;2023-04-07T00:34:07;101496.91;;;8.02;73.79
73267;BME280;61495;53.400;7.608;2023-04-07T00:36:33;101501.44;;;8.01;73.77
73267;BME280;61495;53.400;7.608;2023-04-07T00:38:58;101502.09;;;8.03;71.74
73267;BME280;61495;53.400;7.608;2023-04-07T00:41:24;101494.72;;;8.05;71.80
73267;BME280;61495;53.400;7.608;2023-04-07T00:43:50;101503.75;;;8.04;73.27
73267;BME280;61495;53.400;7.608;2023-04-07T00:46:16;101506.44;;;8.04;71.87
73267;BME280;61495;53.400;7.608;2023-04-07T00:48:42;101499.41;;;8.03;73.66
73267;BME280;61495;53.400;7.608;2023-04-07T00:51:08;101496.75;;;8.03;73.39
73267;BME280;61495;53.400;7.608;2023-04-07T00:53:34;101495.06;;;8.02;73.43
73267;BME280;61495;53.400;7.608;2023-04-07T00:55:59;101502.44;;;8.00;74.03
73267;BME280;61495;53.400;7.608;2023-04-07T00:58:24;101495.41;;;7.99;73.21
73267;BME280;61495;53.400;7.608;2023-04-07T01:01:09;101496.44;;;7.98;73.44
73267;BME280;61495;53.400;7.608;2023-04-07T01:03:44;101503.63;;;7.98;73.60
73267;BME280;61495;53.400;7.608;2023-04-07T01:06:13;101501.78;;;7.98;72.65
73267;BME280;61495;53.400;7.608;2023-04-07T01:09:15;101503.78;;;7.96;73.84
73267;BME280;61495;53.400;7.608;2023-04-07T01:14:23;101499.81;;;7.92;74.51
73267;BME280;61495;53.400;7.608;2023-04-07T01:16:50;101503.13;;;7.94;74.25
73267;BME280;61495;53.400;7.608;2023-04-07T01:19:36;101496.13;;;7.93;75.10
73267;BME280;61495;53.400;7.608;2023-04-07T01:22:17;101495.47;;;7.91;74.32
73267;BME280;61495;53.400;7.608;2023-04-07T01:25:25;101503.47;;;7.91;74.74
73267;BME280;61495;53.400;7.608;2023-04-07T01:30:28;101504.16;;;7.85;74.90
73267;BME280;61495;53.400;7.608;2023-04-07T01:32:57;101500.50;;;7.86;74.67
73267;BME280;61495;53.400;7.608;2023-04-07T01:35:23;101492.00;;;7.82;74.66
73267;BME280;61495;53.400;7.608;2023-04-07T01:37:51;101505.16;;;7.84;75.41
73267;BME280;61495;53.400;7.608;2023-04-07T01:40:17;101500.84;;;7.83;75.27
73267;BME280;61495;53.400;7.608;2023-04-07T01:42:44;101501.84;;;7.82;75.30
73267;BME280;61495;53.400;7.608;2023-04-07T01:45:11;101498.34;;;7.81;74.93
73267;BME280;61495;53.400;7.608;2023-04-07T01:47:37;101496.50;;;7.82;75.23
73267;BME280;61495;53.400;7.608;2023-04-07T01:50:04;101502.03;;;7.80;75.29
73267;BME280;61495;53.400;7.608;2023-04-07T01:52:32;101500.34;;;7.79;75.74
73267;BME280;61495;53.400;7.608;2023-04-07T01:54:58;101506.53;;;7.80;76.74
73267;BME280;61495;53.400;7.608;2023-04-07T01:57:24;101501.53;;;7.77;75.54
73267;BME280;61495;53.400;7.608;2023-04-07T01:59:50;101506.88;;;7.77;74.47
73267;BME280;61495;53.400;7.608;2023-04-07T02:02:15;101498.22;;;7.75;76.78
73267;BME280;61495;53.400;7.608;2023-04-07T02:04:52;101506.56;;;7.72;76.01
73267;BME280;61495;53.400;7.608;2023-04-07T02:07:21;101511.38;;;7.76;76.29
73267;BME280;61495;53.400;7.608;2023-04-07T02:09:50;101498.56;;;7.72;76.71
73267;BME280;61495;53.400;7.608;2023-04-07T02:12:18;101505.53;;;7.73;75.88
73267;BME280;61495;53.400;7.608;2023-04-07T02:14:43;101498.22;;;7.75;75.70
73267;BME280;61495;53.400;7.608;2023-04-07T02:17:09;101499.03;;;7.75;75.59
73267;BME280;61495;53.400;7.608;2023-04-07T02:19:36;101500.19;;;7.73;76.63
73267;BME280;61495;53.400;7.608;2023-04-07T02:22:02;101508.38;;;7.71;76.33
73267;BME280;61495;53.400;7.608;2023-04-07T02:24:29;101506.38;;;7.73;75.81
73267;BME280;61495;53.400;7.608;2023-04-07T02:26:54;101509.22;;;7.72;76.56
73267;BME280;61495;53.400;7.608;2023-04-07T02:29:20;101509.22;;;7.72;76.06
73267;BME280;61495;53.400;7.608;2023-04-07T02:31:45;101511.22;;;7.70;77.06
73267;BME280;61495;53.400;7.608;2023-04-07T02:34:11;101506.91;;;7.69;76.04
73267;BME280;61495;53.400;7.608;2023-04-07T02:36:36;101508.53;;;7.70;75.78
73267;BME280;61495;53.400;7.608;2023-04-07T02:39:01;101508.38;;;7.71;76.08
73267;BME280;61495;53.400;7.608;2023-04-07T02:41:27;101512.88;;;7.71;76.49
73267;BME280;61495;53.400;7.608;2023-04-07T02:43:53;101515.91;;;7.68;76.86
73267;BME280;61495;53.400;7.608;2023-04-07T02:46:18;101509.56;;;7.69;76.66
73267;BME280;61495;53.400;7.608;2023-04-07T02:48:44;101512.38;;;7.67;75.57
73267;BME280;61495;53.400;7.608;2023-04-07T02:51:09;101527.06;;;7.63;76.89
73267;BME280;61495;53.400;7.608;2023-04-07T02:53:34;101522.56;;;7.64;77.22
73267;BME280;61495;53.400;7.608;2023-04-07T02:56:00;101527.25;;;7.62;76.58
73267;BME280;61495;53.400;7.608;2023-04-07T02:58:25;101522.25;;;7.59;77.52
73267;BME280;61495;53.400;7.608;2023-04-07T03:00:50;101526.94;;;7.57;77.47
73267;BME280;61495;53.400;7.608;2023-04-07T03:03:16;101524.59;;;7.54;76.95
73267;BME280;61495;53.400;7.608;2023-04-07T03:05:41;101522.59;;;7.56;75.92
73267;BME280;61495;53.400;7.608;2023-04-07T03:08:06;101525.25;;;7.56;76.53
73267;BME280;61495;53.400;7.608;2023-04-07T03:10:32;101524.28;;;7.57;76.49
73267;BME280;61495;53.400;7.608;2023-04-07T03:12:57;101515.44;;;7.56;76.14
73267;BME280;61495;53.400;7.608;2023-04-07T03:15:23;101525.25;;;7.56;76.17
73267;BME280;61495;53.400;7.608;2023-04-07T03:17:48;101525.59;;;7.53;75.23
73267;BME280;61495;53.400;7.608;2023-04-07T03:20:13;101521.25;;;7.52;76.28
73267;BME280;61495;53.400;7.608;2023-04-07T03:22:39;101523.47;;;7.48;75.91
73267;BME280;61495;53.400;7.608;2023-04-07T03:25:05;101520.59;;;7.50;76.08
73267;BME280;61495;53.400;7.608;2023-04-07T03:27:30;101529.94;;;7.46;75.02
73267;BME280;61495;53.400;7.608;2023-04-07T03:29:56;101526.81;;;7.42;74.78
73267;BME280;61495;53.400;7.608;2023-04-07T03:32:21;101528.97;;;7.39;75.28
73267;BME280;61495;53.400;7.608;2023-04-07T03:34:46;101525.28;;;7.40;74.35
73267;BME280;61495;53.400;7.608;2023-04-07T03:37:12;101527.63;;;7.35;75.12
73267;BME280;61495;53.400;7.608;2023-04-07T03:39:37;101520.28;;;7.37;73.95
73267;BME280;61495;53.400;7.608;2023-04-07T03:42:04;101524.47;;;7.39;74.30
73267;BME280;61495;53.400;7.608;2023-04-07T03:44:29;101532.63;;;7.38;74.15
73267;BME280;61495;53.400;7.608;2023-04-07T03:46:54;101533.28;;;7.32;74.07
73267;BME280;61495;53.400;7.608;2023-04-07T03:49:20;101536.78;;;7.32;73.45
73267;BME280;61495;53.400;7.608;2023-04-07T03:51:46;101534.97;;;7.33;73.12
73267;BME280;61495;53.400;7.608;2023-04-07T03:54:11;101534.28;;;7.31;73.57
73267;BME280;61495;53.400;7.608;2023-04-07T03:56:37;101546.81;;;7.30;73.76
73267;BME280;61495;53.400;7.608;2023-04-07T03:59:02;101539.78;;;7.29;73.30
73267;BME280;61495;53.400;7.608;2023-04-07T04:01:27;101542.94;;;7.24;73.49
73267;BME280;61495;53.400;7.608;2023-04-07T04:03:53;101540.97;;;7.26;73.30
73267;BME280;61495;53.400;7.608;2023-04-07T04:06:18;101542.78;;;7.26;73.45
73267;BME280;61495;53.400;7.608;2023-04-07T04:08:44;101545.47;;;7.26;72.73
73267;BME280;61495;53.400;7.608;2023-04-07T04:11:09;101539.81;;;7.21;72.77
73267;BME280;61495;53.400;7.608;2023-04-07T04:13:34;101536.66;;;7.17;72.49
73267;BME280;61495;53.400;7.608;2023-04-07T04:16:00;101541.78;;;7.19;72.18
73267;BME280;61495;53.400;7.608;2023-04-07T04:18:26;101542.81;;;7.18;72.29
73267;BME280;61495;53.400;7.608;2023-04-07T04:20:51;101555.28;;;7.17;72.50
73267;BME280;61495;53.400;7.608;2023-04-07T04:23:17;101552.97;;;7.14;72.72
73267;BME280;61495;53.400;7.608;2023-04-07T04:25:42;101557.63;;;7.12;72.00
73267;BME280;61495;53.400;7.608;2023-04-07T04:28:07;101558.78;;;7.10;71.88
73267;BME280;61495;53.400;7.608;2023-04-07T04:30:33;101555.63;;;7.06;71.83
73267;BME280;61495;53.400;7.608;2023-04-07T04:32:58;101557.63;;;7.04;71.77
73267;BME280;61495;53.400;7.608;2023-04-07T04:35:23;101561.94;;;7.05;71.43
73267;BME280;61495;53.400;7.608;2023-04-07T04:37:50;101563.97;;;7.03;71.56
73267;BME280;61495;53.400;7.608;2023-04-07T04:40:15;101566.63;;;7.03;71.14
73267;BME280;61495;53.400;7.608;2023-04-07T04:42:41;101570.28;;;7.02;71.07
73267;BME280;61495;53.400;7.608;2023-04-07T04:45:06;101568.47;;;6.95;70.81
73267;BME280;61495;53.400;7.608;2023-04-07T04:47:32;101572.75;;;6.88;70.86
73267;BME280;61495;53.400;7.608;2023-04-07T04:49:57;101566.94;;;6.84;71.19
73267;BME280;61495;53.400;7.608;2023-04-07T04:52:23;101575.56;;;6.86;70.72
73267;BME280;61495;53.400;7.608;2023-04-07T04:54:48;101570.25;;;6.86;70.56
73267;BME280;61495;53.400;7.608;2023-04-07T04:57:13;101577.59;;;6.84;70.65
73267;BME280;61495;53.400;7.608;2023-04-07T04:59:40;101577.59;;;6.84;70.53
73267;BME280;61495;53.400;7.608;2023-04-07T05:02:06;101577.06;;;6.81;70.28
73267;BME280;61495;53.400;7.608;2023-04-07T05:04:32;101575.56;;;6.78;70.18
73267;BME280;61495;53.400;7.608;2023-04-07T05:06:57;101576.56;;;6.77;70.23
73267;BME280;61495;53.400;7.608;2023-04-07T05:09:22;101575.44;;;6.80;70.28
73267;BME280;61495;53.400;7.608;2023-04-07T05:11:48;101579.91;;;6.79;70.05
73267;BME280;61495;53.400;7.608;2023-04-07T05:14:13;101582.72;;;6.78;69.81
73267;BME280;61495;53.400;7.608;2023-04-07T05:16:39;101583.56;;;6.70;69.37
73267;BME280;61495;53.400;7.608;2023-04-07T05:19:04;101589.88;;;6.77;69.85
73267;BME280;61495;53.400;7.608;2023-04-07T05:21:30;101592.19;;;6.72;69.36
73267;BME280;61495;53.400;7.608;2023-04-07T05:23:55;101588.88;;;6.70;68.63
73267;BME280;61495;53.400;7.608;2023-04-07T05:26:21;101598.19;;;6.74;69.06
73267;BME280;61495;53.400;7.608;2023-04-07T05:28:46;101597.88;;;6.77;68.96
73267;BME280;61495;53.400;7.608;2023-04-07T05:31:11;101595.56;;;6.82;68.86
73267;BME280;61495;53.400;7.608;2023-04-07T05:33:37;101598.88;;;6.84;68.56
73267;BME280;61495;53.400;7.608;2023-04-07T05:36:02;101598.38;;;6.81;68.71
73267;BME280;61495;53.400;7.608;2023-04-07T05:38:28;101596.22;;;6.76;68.11
73267;BME280;61495;53.400;7.608;2023-04-07T05:40:53;101604.19;;;6.76;68.41
73267;BME280;61495;53.400;7.608;2023-04-07T05:43:18;101607.19;;;6.73;68.57
73267;BME280;61495;53.400;7.608;2023-04-07T05:45:44;101612.66;;;6.71;68.02
73267;BME280;61495;53.400;7.608;2023-04-07T05:48:09;101610.84;;;6.72;67.92
73267;BME280;61495;53.400;7.608;2023-04-07T05:50:34;101606.84;;;6.68;67.83
73267;BME280;61495;53.400;7.608;2023-04-07T05:53:00;101610.81;;;6.64;67.19
73267;BME280;61495;53.400;7.608;2023-04-07T05:55:25;101616.50;;;6.69;67.49
73267;BME280;61495;53.400;7.608;2023-04-07T05:57:51;101617.00;;;6.64;67.63
73267;BME280;61495;53.400;7.608;2023-04-07T06:00:17;101622.13;;;6.66;67.51
73267;BME280;61495;53.400;7.608;2023-04-07T06:02:43;101622.47;;;6.63;67.81
73267;BME280;61495;53.400;7.608;2023-04-07T06:05:08;101628.81;;;6.62;66.89
73267;BME280;61495;53.400;7.608;2023-04-07T06:07:33;101625.81;;;6.65;67.07
73267;BME280;61495;53.400;7.608;2023-04-07T06:09:59;101627.47;;;6.66;67.38
73267;BME280;61495;53.400;7.608;2023-04-07T06:12:24;101637.78;;;6.69;67.42
73267;BME280;61495;53.400;7.608;2023-04-07T06:14:53;101637.47;;;6.72;67.50
73267;BME280;61495;53.400;7.608;2023-04-07T06:17:19;101640.47;;;6.77;67.46
73267;BME280;61495;53.400;7.608;2023-04-07T06:19:44;101643.50;;;6.82;67.54
73267;BME280;61495;53.400;7.608;2023-04-07T06:22:10;101648.50;;;6.85;68.08
73267;BME280;61495;53.400;7.608;2023-04-07T06:24:35;101649.66;;;6.83;67.39
73267;BME280;61495;53.400;7.608;2023-04-07T06:27:01;101658.31;;;6.85;67.09
73267;BME280;61495;53.400;7.608;2023-04-07T06:29:28;101654.03;;;6.92;66.66
73267;BME280;61495;53.400;7.608;2023-04-07T06:31:53;101662.16;;;6.98;66.84
73267;BME280;61495;53.400;7.608;2023-04-07T06:34:18;101665.34;;;7.02;66.55
73267;BME280;61495;53.400;7.608;2023-04-07T06:36:44;101677.16;;;6.99;67.05
73267;BME280;61495;53.400;7.608;2023-04-07T06:39:10;101673.00;;;7.05;66.62
73267;BME280;61495;53.400;7.608;2023-04-07T06:41:35;101674.03;;;7.12;66.73
73267;BME280;61495;53.400;7.608;2023-04-07T06:44:01;101673.19;;;7.19;66.79
73267;BME280;61495;53.400;7.608;2023-04-07T06:46:26;101678.91;;;7.33;66.32
73267;BME280;61495;53.400;7.608;2023-04-07T06:48:51;101672.06;;;7.38;66.50
73267;BME280;61495;53.400;7.608;2023-04-07T06:51:17;101685.91;;;7.50;65.66
73267;BME280;61495;53.400;7.608;2023-04-07T06:53:42;101691.59;;;7.63;65.17
73267;BME280;61495;53.400;7.608;2023-04-07T06:56:11;101691.56;;;7.71;65.03
73267;BME280;61495;53.400;7.608;2023-04-07T06:58:37;101695.56;;;7.91;64.43
73267;BME280;61495;53.400;7.608;2023-04-07T07:01:03;101700.06;;;8.07;64.11
73267;BME280;61495;53.400;7.608;2023-04-07T07:03:30;101697.00;;;8.26;63.21
73267;BME280;61495;53.400;7.608;2023-04-07T07:05:57;101689.47;;;8.46;62.79
73267;BME280;61495;53.400;7.608;2023-04-07T07:08:22;101697.75;;;8.59;61.64
73267;BME280;61495;53.400;7.608;2023-04-07T07:10:48;101706.75;;;8.66;61.28
73267;BME280;61495;53.400;7.608;2023-04-07T07:13:13;101697.81;;;8.89;61.68
73267;BME280;61495;53.400;7.608;2023-04-07T07:15:39;101698.19;;;9.09;61.40
73267;BME280;61495;53.400;7.608;2023-04-07T07:18:04;101702.47;;;9.18;60.44
73267;BME280;61495;53.400;7.608;2023-04-07T07:20:30;101702.38;;;9.34;60.58
73267;BME280;61495;53.400;7.608;2023-04-07T07:22:55;101705.97;;;9.49;60.02
73267;BME280;61495;53.400;7.608;2023-04-07T07:25:21;101710.03;;;9.60;59.25
73267;BME280;61495;53.400;7.608;2023-04-07T07:27:46;101711.78;;;9.76;59.50
73267;BME280;61495;53.400;7.608;2023-04-07T07:30:17;101717.69;;;9.86;59.55
73267;BME280;61495;53.400;7.608;2023-04-07T07:32:42;101717.56;;;10.02;58.98
73267;BME280;61495;53.400;7.608;2023-04-07T07:35:08;101737.28;;;10.01;58.58
73267;BME280;61495;53.400;7.608;2023-04-07T07:37:33;101726.41;;;10.02;57.75
73267;BME280;61495;53.400;7.608;2023-04-07T07:39:58;101731.47;;;10.20;58.23
73267;BME280;61495;53.400;7.608;2023-04-07T07:42:24;101731.94;;;10.24;58.41
73267;BME280;61495;53.400;7.608;2023-04-07T07:44:49;101734.06;;;10.28;57.95
73267;BME280;61495;53.400;7.608;2023-04-07T07:47:15;101742.06;;;10.14;57.69
73267;BME280;61495;53.400;7.608;2023-04-07T07:49:40;101745.72;;;10.35;57.75
73267;BME280;61495;53.400;7.608;2023-04-07T07:52:06;101754.03;;;10.55;57.82
73267;BME280;61495;53.400;7.608;2023-04-07T07:54:31;101754.59;;;10.65;57.83
73267;BME280;61495;53.400;7.608;2023-04-07T07:56:56;101753.59;;;10.81;57.69
73267;BME280;61495;53.400;7.608;2023-04-07T07:59:22;101760.22;;;10.85;57.51
73267;BME280;61495;53.400;7.608;2023-04-07T08:01:47;101763.09;;;10.98;57.91
73267;BME280;61495;53.400;7.608;2023-04-07T08:04:12;101771.31;;;10.96;56.79
73267;BME280;61495;53.400;7.608;2023-04-07T08:06:38;101766.50;;;11.06;57.61
73267;BME280;61495;53.400;7.608;2023-04-07T08:09:03;101772.59;;;11.15;56.68
73267;BME280;61495;53.400;7.608;2023-04-07T08:11:30;101766.72;;;11.26;57.15
73267;BME280;61495;53.400;7.608;2023-04-07T08:13:55;101769.41;;;11.26;56.90
73267;BME280;61495;53.400;7.608;2023-04-07T08:16:20;101769.84;;;11.44;57.21
73267;BME280;61495;53.400;7.608;2023-04-07T08:18:46;101772.00;;;11.55;56.46
73267;BME280;61495;53.400;7.608;2023-04-07T08:21:12;101772.09;;;11.62;56.47
73267;BME280;61495;53.400;7.608;2023-04-07T08:23:37;101774.38;;;11.80;56.67
73267;BME280;61495;53.400;7.608;2023-04-07T08:26:02;101780.41;;;11.82;56.71
73267;BME280;61495;53.400;7.608;2023-04-07T08:28:28;101793.25;;;11.86;56.82
73267;BME280;61495;53.400;7.608;2023-04-07T08:30:53;101785.25;;;11.93;56.25
73267;BME280;61495;53.400;7.608;2023-04-07T08:33:18;101789.47;;;12.02;56.13
73267;BME280;61495;53.400;7.608;2023-04-07T08:35:44;101790.16;;;12.10;55.46
73267;BME280;61495;53.400;7.608;2023-04-07T08:38:09;101787.84;;;12.07;55.55
73267;BME280;61495;53.400;7.608;2023-04-07T08:40:34;101791.47;;;12.21;55.97
73267;BME280;61495;53.400;7.608;2023-04-07T08:43:08;101790.47;;;12.22;55.31
73267;BME280;61495;53.400;7.608;2023-04-07T08:45:37;101794.63;;;12.24;55.37
73267;BME280;61495;53.400;7.608;2023-04-07T08:48:08;101792.22;;;12.36;55.08
73267;BME280;61495;53.400;7.608;2023-04-07T08:50:37;101800.41;;;12.49;55.61
73267;BME280;61495;53.400;7.608;2023-04-07T08:53:05;101804.72;;;12.50;54.85
73267;BME280;61495;53.400;7.608;2023-04-07T08:55:34;101802.34;;;12.62;54.81
73267;BME280;61495;53.400;7.608;2023-04-07T08:58:00;101803.72;;;12.79;54.96
73267;BME280;61495;53.400;7.608;2023-04-07T09:00:25;101804.16;;;12.89;54.66
73267;BME280;61495;53.400;7.608;2023-04-07T09:02:51;101794.63;;;12.87;54.94
73267;BME280;61495;53.400;7.608;2023-04-07T09:05:17;101804.81;;;12.98;55.08
73267;BME280;61495;53.400;7.608;2023-04-07T09:07:42;101806.19;;;12.80;53.43
73267;BME280;61495;53.400;7.608;2023-04-07T09:10:08;101801.34;;;13.04;53.99
73267;BME280;61495;53.400;7.608;2023-04-07T09:12:34;101808.41;;;13.05;53.96
73267;BME280;61495;53.400;7.608;2023-04-07T09:14:59;101808.03;;;13.08;53.01
73267;BME280;61495;53.400;7.608;2023-04-07T09:17:26;101796.88;;;13.11;53.55
73267;BME280;61495;53.400;7.608;2023-04-07T09:19:55;101799.81;;;13.22;52.88
73267;BME280;61495;53.400;7.608;2023-04-07T09:22:35;101797.38;;;13.34;52.69
73267;BME280;61495;53.400;7.608;2023-04-07T09:25:18;101801.13;;;13.33;51.91
73267;BME280;61495;53.400;7.608;2023-04-07T09:27:53;101799.44;;;13.32;51.62
73267;BME280;61495;53.400;7.608;2023-04-07T09:30:19;101792.00;;;13.34;51.32
73267;BME280;61495;53.400;7.608;2023-04-07T09:32:45;101798.25;;;13.41;51.63
73267;BME280;61495;53.400;7.608;2023-04-07T09:35:10;101794.97;;;13.52;51.65
73267;BME280;61495;53.400;7.608;2023-04-07T09:37:36;101792.94;;;13.67;52.01
73267;BME280;61495;53.400;7.608;2023-04-07T09:40:02;101789.63;;;13.72;51.46
73267;BME280;61495;53.400;7.608;2023-04-07T09:42:28;101792.56;;;13.83;51.45
73267;BME280;61495;53.400;7.608;2023-04-07T09:44:59;101799.59;;;13.71;50.76
73267;BME280;61495;53.400;7.608;2023-04-07T09:47:28;101810.13;;;13.73;50.92
73267;BME280;61495;53.400;7.608;2023-04-07T09:49:55;101794.16;;;13.65;50.46
73267;BME280;61495;53.400;7.608;2023-04-07T09:52:51;101784.63;;;13.62;50.57
73267;BME280;61495;53.400;7.608;2023-04-07T09:55:21;101792.72;;;13.75;50.62
73267;BME280;61495;53.400;7.608;2023-04-07T09:57:51;101785.75;;;14.01;50.82
73267;BME280;61495;53.400;7.608;2023-04-07T10:00:17;101794.63;;;14.08;50.61
73267;BME280;61495;53.400;7.608;2023-04-07T10:02:43;101800.44;;;14.05;50.13
73267;BME280;61495;53.400;7.608;2023-04-07T10:05:09;101800.25;;;14.13;49.89
73267;BME280;61495;53.400;7.608;2023-04-07T10:07:34;101800.88;;;14.15;48.49
73267;BME280;61495;53.400;7.608;2023-04-07T10:10:00;101797.53;;;14.00;47.85
73267;BME280;61495;53.400;7.608;2023-04-07T10:12:26;101801.25;;;13.99;46.65
73267;BME280;61495;53.400;7.608;2023-04-07T10:14:52;101804.59;;;14.01;46.66
73267;BME280;61495;53.400;7.608;2023-04-07T10:17:19;101803.16;;;14.24;47.58
73267;BME280;61495;53.400;7.608;2023-04-07T10:19:47;101805.22;;;14.29;47.47
73267;BME280;61495;53.400;7.608;2023-04-07T10:22:13;101805.84;;;14.18;45.91
73267;BME280;61495;53.400;7.608;2023-04-07T10:25:22;101813.72;;;14.06;44.74
73267;BME280;61495;53.400;7.608;2023-04-07T10:27:47;101814.13;;;13.97;43.95
73267;BME280;61495;53.400;7.608;2023-04-07T10:30:24;101823.66;;;14.06;44.42
73267;BME280;61495;53.400;7.608;2023-04-07T10:32:52;101818.06;;;14.01;42.97
73267;BME280;61495;53.400;7.608;2023-04-07T10:35:18;101822.22;;;14.10;43.41
73267;BME280;61495;53.400;7.608;2023-04-07T10:40:32;101820.78;;;14.07;42.98
73267;BME280;61495;53.400;7.608;2023-04-07T10:42:58;101823.66;;;14.06;42.60
73267;BME280;61495;53.400;7.608;2023-04-07T10:48:10;101826.16;;;14.14;41.75
73267;BME280;61495;53.400;7.608;2023-04-07T10:50:37;101833.00;;;14.10;42.44
73267;BME280;61495;53.400;7.608;2023-04-07T10:53:10;101846.50;;;14.16;42.13
73267;BME280;61495;53.400;7.608;2023-04-07T10:55:40;101829.06;;;14.06;41.99
73267;BME280;61495;53.400;7.608;2023-04-07T10:58:12;101832.16;;;13.89;41.12
73267;BME280;61495;53.400;7.608;2023-04-07T11:00:37;101829.88;;;14.00;42.47
73267;BME280;61495;53.400;7.608;2023-04-07T11:03:10;101853.31;;;14.06;41.20
73267;BME280;61495;53.400;7.608;2023-04-07T11:05:40;101833.19;;;14.02;41.99
73267;BME280;61495;53.400;7.608;2023-04-07T11:08:06;101840.25;;;14.03;42.11
73267;BME280;61495;53.400;7.608;2023-04-07T11:10:34;101841.50;;;14.00;41.30
73267;BME280;61495;53.400;7.608;2023-04-07T11:13:05;101839.41;;;13.96;41.63
73267;BME280;61495;53.400;7.608;2023-04-07T11:15:32;101849.59;;;14.07;42.67
73267;BME280;61495;53.400;7.608;2023-04-07T11:18:18;101840.88;;;14.05;42.04
73267;BME280;61495;53.400;7.608;2023-04-07T11:20:46;101841.47;;;13.93;41.37
73267;BME280;61495;53.400;7.608;2023-04-07T11:23:12;101849.75;;;13.99;42.01
73267;BME280;61495;53.400;7.608;2023-04-07T11:25:38;101853.50;;;13.98;41.13
73267;BME280;61495;53.400;7.608;2023-04-07T11:28:03;101862.19;;;13.93;41.31
73267;BME280;61495;53.400;7.608;2023-04-07T11:30:29;101854.91;;;13.87;41.15
73267;BME280;61495;53.400;7.608;2023-04-07T11:32:55;101863.84;;;13.87;40.75
73267;BME280;61495;53.400;7.608;2023-04-07T11:35:22;101861.63;;;14.04;41.38
73267;BME280;61495;53.400;7.608;2023-04-07T11:37:47;101860.16;;;14.08;41.61
73267;BME280;61495;53.400;7.608;2023-04-07T11:40:30;101859.97;;;14.10;41.37
73267;BME280;61495;53.400;7.608;2023-04-07T11:42:57;101857.03;;;14.05;40.71
73267;BME280;61495;53.400;7.608;2023-04-07T11:45:22;101861.81;;;14.09;40.93
73267;BME280;61495;53.400;7.608;2023-04-07T11:47:48;101847.31;;;14.04;41.42
73267;BME280;61495;53.400;7.608;2023-04-07T11:50:15;101865.56;;;14.15;41.49
73267;BME280;61495;53.400;7.608;2023-04-07T11:52:42;101870.53;;;14.11;40.80
73267;BME280;61495;53.400;7.608;2023-04-07T11:55:20;101867.41;;;14.14;41.60
73267;BME280;61495;53.400;7.608;2023-04-07T11:57:47;101868.88;;;14.17;41.44
73267;BME280;61495;53.400;7.608;2023-04-07T12:00:13;101882.56;;;14.15;41.01
73267;BME280;61495;53.400;7.608;2023-04-07T12:02:40;101875.50;;;14.08;40.38
73267;BME280;61495;53.400;7.608;2023-04-07T12:05:06;101873.44;;;14.10;40.61
73267;BME280;61495;53.400;7.608;2023-04-07T12:07:31;101871.56;;;14.17;40.44
73267;BME280;61495;53.400;7.608;2023-04-07T12:09:57;101879.66;;;14.17;40.72
73267;BME280;61495;53.400;7.608;2023-04-07T12:12:27;101872.63;;;14.16;40.92
73267;BME280;61495;53.400;7.608;2023-04-07T12:14:54;101871.19;;;14.13;41.25
73267;BME280;61495;53.400;7.608;2023-04-07T12:17:21;101876.53;;;14.20;40.91
73267;BME280;61495;53.400;7.608;2023-04-07T12:19:46;101879.69;;;14.30;39.86
73267;BME280;61495;53.400;7.608;2023-04-07T12:22:11;101877.19;;;14.22;39.47
73267;BME280;61495;53.400;7.608;2023-04-07T12:24:37;101876.38;;;14.28;40.05
73267;BME280;61495;53.400;7.608;2023-04-07T12:27:03;101880.50;;;14.24;40.10
73267;BME280;61495;53.400;7.608;2023-04-07T12:29:28;101885.53;;;14.33;39.53
73267;BME280;61495;53.400;7.608;2023-04-07T12:31:54;101895.47;;;14.33;39.46
73267;BME280;61495;53.400;7.608;2023-04-07T12:34:20;101886.75;;;14.37;39.51
73267;BME280;61495;53.400;7.608;2023-04-07T12:36:46;101891.97;;;14.45;40.07
73267;BME280;61495;53.400;7.608;2023-04-07T12:39:11;101882.63;;;14.48;40.46
73267;BME280;61495;53.400;7.608;2023-04-07T12:41:37;101889.69;;;14.62;41.09
73267;BME280;61495;53.400;7.608;2023-04-07T12:44:03;101887.19;;;14.80;41.17
73267;BME280;61495;53.400;7.608;2023-04-07T12:46:28;101892.16;;;14.70;39.78
73267;BME280;61495;53.400;7.608;2023-04-07T12:48:53;101892.59;;;14.54;39.19
73267;BME280;61495;53.400;7.608;2023-04-07T12:51:19;101892.19;;;14.57;38.31
73267;BME280;61495;53.400;7.608;2023-04-07T12:53:44;101892.59;;;14.74;39.83
73267;BME280;61495;53.400;7.608;2023-04-07T12:56:11;101885.09;;;14.76;38.21
73267;BME280;61495;53.400;7.608;2023-04-07T12:58:37;101900.50;;;14.75;39.05
73267;BME280;61495;53.400;7.608;2023-04-07T13:01:03;101891.75;;;14.73;37.75
73267;BME280;61495;53.400;7.608;2023-04-07T13:03:28;101886.16;;;14.81;38.66